Time;durP1;ratioP1;P1;durP2;ratioP2;P2;SDS_P1;SDS_P2;PMS_P1;PMS_P2;Temp;Humidity;BMP_temperature;BMP_pressure;BME280_temperature;BME280_humidity;BME280_pressure;Samples;Min_cycle;Max_cycle;Signal;HPM_P1;HPM_P2
2021/10/08 00:01:29;;;;;;;9.65;5.28;;;;;;;6.52;100.00;103070.16;4951791;28;20038;-80
2021/10/08 00:03:55;;;;;;;8.93;5.25;;;;;;;6.48;100.00;103070.31;4953779;28;20373;-80
2021/10/08 00:06:21;;;;;;;9.35;5.45;;;;;;;6.40;100.00;103068.03;4931057;28;20038;-80
2021/10/08 00:08:47;;;;;;;11.38;5.40;;;;;;;6.37;100.00;103069.03;4942039;28;20633;-80
2021/10/08 00:11:13;;;;;;;8.95;4.70;;;;;;;6.22;100.00;103057.44;4943465;28;20049;-82
2021/10/08 00:13:39;;;;;;;7.05;4.43;;;;;;;6.28;100.00;103076.38;4973332;28;20038;-81
2021/10/08 00:16:07;;;;;;;5.53;4.68;;;;;;;6.27;100.00;103079.88;4938735;28;20437;-81
2021/10/08 00:18:34;;;;;;;6.93;4.50;;;;;;;6.20;100.00;103079.28;4972027;28;20030;-80
2021/10/08 00:21:00;;;;;;;10.63;4.72;;;;;;;6.20;100.00;103080.13;4937878;28;20039;-80
2021/10/08 00:23:25;;;;;;;8.32;5.30;;;;;;;6.19;100.00;103081.00;4933826;28;20034;-78
2021/10/08 00:25:51;;;;;;;6.30;4.22;;;;;;;6.18;100.00;103081.94;4973753;28;20052;-79
2021/10/08 00:28:16;;;;;;;6.75;4.75;;;;;;;6.19;100.00;103083.63;4946904;28;20033;-81
2021/10/08 00:30:42;;;;;;;8.00;5.07;;;;;;;6.17;100.00;103080.22;4985017;28;20512;-78
2021/10/08 00:33:08;;;;;;;8.05;5.03;;;;;;;6.15;100.00;103081.22;4925950;28;20085;-80
2021/10/08 00:35:35;;;;;;;7.10;4.65;;;;;;;6.11;100.00;103082.25;4934312;28;20058;-79
2021/10/08 00:38:03;;;;;;;9.20;4.63;;;;;;;6.07;100.00;103086.72;4937553;28;20045;-80
2021/10/08 00:40:33;;;;;;;8.85;4.25;;;;;;;6.01;100.00;103082.59;4956721;28;20049;-82
2021/10/08 00:42:59;;;;;;;7.82;4.30;;;;;;;6.04;100.00;103072.03;4959520;28;20486;-81
2021/10/08 00:45:24;;;;;;;7.05;4.20;;;;;;;6.07;100.00;103078.06;4941761;28;20046;-80
2021/10/08 00:47:55;;;;;;;6.75;4.30;;;;;;;6.07;100.00;103078.91;4947570;28;20042;-82
2021/10/08 00:50:21;;;;;;;7.22;4.32;;;;;;;6.01;100.00;103072.19;4969098;28;20089;-81
2021/10/08 00:52:46;;;;;;;6.50;3.90;;;;;;;6.03;100.00;103075.56;4964858;28;20038;-83
2021/10/08 00:55:11;;;;;;;8.35;5.40;;;;;;;5.94;100.00;103077.66;4972756;28;20042;-79
2021/10/08 00:57:37;;;;;;;6.47;4.63;;;;;;;5.91;100.00;103072.56;4972934;28;20042;-80
2021/10/08 01:00:04;;;;;;;6.22;4.28;;;;;;;5.89;100.00;103070.00;4950227;28;20046;-81
2021/10/08 01:02:30;;;;;;;6.13;4.53;;;;;;;5.91;100.00;103075.16;4950834;28;20053;-83
2021/10/08 01:04:56;;;;;;;10.45;4.78;;;;;;;5.85;100.00;103084.06;4921016;28;20085;-80
2021/10/08 01:07:24;;;;;;;6.78;4.45;;;;;;;5.80;100.00;103083.38;4936670;28;20661;-80
2021/10/08 01:09:50;;;;;;;7.78;4.80;;;;;;;5.77;100.00;103088.72;4929263;28;20035;-80
2021/10/08 01:12:16;;;;;;;9.23;5.03;;;;;;;5.71;100.00;103079.38;4930315;28;20092;-80
2021/10/08 01:14:41;;;;;;;6.90;4.55;;;;;;;5.68;100.00;103082.09;4933300;28;20408;-80
2021/10/08 01:17:20;;;;;;;8.02;4.32;;;;;;;5.70;100.00;103082.88;4954198;28;20057;-81
2021/10/08 01:19:52;;;;;;;8.82;4.60;;;;;;;5.68;100.00;103076.88;4955167;28;20122;-81
2021/10/08 01:22:18;;;;;;;6.43;4.80;;;;;;;5.70;100.00;103082.88;4936041;28;20038;-79
2021/10/08 01:24:48;;;;;;;7.90;4.30;;;;;;;5.68;100.00;103081.25;4948239;28;20035;-80
2021/10/08 01:27:17;;;;;;;7.38;4.32;;;;;;;5.69;100.00;103083.78;4932799;28;20045;-79
2021/10/08 01:29:53;;;;;;;7.57;4.68;;;;;;;5.66;100.00;103076.94;4965410;28;20416;-79
2021/10/08 01:32:25;;;;;;;6.55;4.80;;;;;;;5.66;100.00;103086.50;4945021;28;20030;-84
2021/10/08 01:34:51;;;;;;;5.40;4.10;;;;;;;5.63;100.00;103084.88;4941271;28;20500;-78
2021/10/08 01:37:18;;;;;;;5.97;3.90;;;;;;;5.60;100.00;103089.34;4940604;28;20033;-79
2021/10/08 01:39:44;;;;;;;6.20;4.72;;;;;;;5.59;100.00;103080.66;4943541;28;20082;-80
2021/10/08 01:42:10;;;;;;;7.28;4.45;;;;;;;5.60;100.00;103086.75;4945746;28;20034;-76
2021/10/08 01:44:37;;;;;;;5.93;4.78;;;;;;;5.59;100.00;103083.25;4936655;28;20041;-77
2021/10/08 01:47:03;;;;;;;7.18;4.97;;;;;;;5.54;100.00;103081.75;4938149;28;20031;-82
2021/10/08 01:49:31;;;;;;;7.55;4.70;;;;;;;5.50;100.00;103083.63;4942651;28;20042;-80
2021/10/08 01:51:59;;;;;;;7.10;4.40;;;;;;;5.47;100.00;103083.72;4944259;28;20062;-79
2021/10/08 01:54:24;;;;;;;5.60;4.03;;;;;;;5.41;100.00;103081.34;4953448;28;20034;-78
2021/10/08 01:56:50;;;;;;;4.90;3.90;;;;;;;5.44;100.00;103081.22;4958533;28;20044;-78
2021/10/08 01:59:15;;;;;;;3.92;3.53;;;;;;;5.42;100.00;103083.88;4966916;28;20031;-80
2021/10/08 02:01:42;;;;;;;5.55;4.10;;;;;;;5.42;100.00;103086.47;4940346;28;20138;-79
2021/10/08 02:04:14;;;;;;;8.70;4.30;;;;;;;5.45;100.00;103083.78;4961499;28;20120;-81
2021/10/08 02:06:39;;;;;;;8.25;4.35;;;;;;;5.49;100.00;103083.69;4950280;28;20130;-78
2021/10/08 02:09:06;;;;;;;5.47;4.35;;;;;;;5.46;100.00;103076.81;4929536;28;20045;-77
2021/10/08 02:11:34;;;;;;;5.15;3.90;;;;;;;5.45;100.00;103082.94;4927028;28;20049;-77
2021/10/08 02:14:00;;;;;;;4.90;4.07;;;;;;;5.44;100.00;103087.31;4939424;28;20039;-78
2021/10/08 02:16:25;;;;;;;3.70;3.30;;;;;;;5.47;100.00;103088.94;4937369;28;20516;-80
2021/10/08 02:19:00;;;;;;;4.85;3.65;;;;;;;5.42;100.00;103090.84;4927416;28;20030;-77
2021/10/08 02:21:27;;;;;;;10.10;4.20;;;;;;;5.41;100.00;103091.78;4941741;28;20101;-79
2021/10/08 02:23:53;;;;;;;5.65;4.28;;;;;;;5.38;100.00;103084.91;4966534;28;20693;-82
2021/10/08 02:26:19;;;;;;;4.88;4.10;;;;;;;5.38;100.00;103094.47;4947086;28;20417;-81
2021/10/08 02:28:45;;;;;;;4.18;3.33;;;;;;;5.37;100.00;103100.56;4950851;28;20045;-80
2021/10/08 02:31:12;;;;;;;4.78;4.10;;;;;;;5.31;100.00;103099.03;4959649;28;20426;-79
2021/10/08 02:33:38;;;;;;;7.88;4.07;;;;;;;5.28;100.00;103098.31;4942290;28;20038;-79
2021/10/08 02:36:06;;;;;;;4.45;3.70;;;;;;;5.22;100.00;103105.44;4958012;28;20124;-80
2021/10/08 02:38:34;;;;;;;4.95;4.32;;;;;;;5.12;100.00;103096.22;4925361;28;20041;-80
2021/10/08 02:41:00;;;;;;;4.82;4.32;;;;;;;5.17;100.00;103103.91;4950267;28;20038;-80
2021/10/08 02:43:26;;;;;;;5.00;3.70;;;;;;;5.17;100.00;103111.69;4961993;28;20037;-80
2021/10/08 02:45:52;;;;;;;5.45;3.75;;;;;;;5.15;100.00;103110.91;4925477;28;20034;-79
2021/10/08 02:48:18;;;;;;;4.97;3.75;;;;;;;5.13;100.00;103110.09;4928196;28;20030;-81
2021/10/08 02:50:43;;;;;;;5.28;4.00;;;;;;;5.12;100.00;103113.59;4946575;28;20085;-80
2021/10/08 02:53:29;;;;;;;5.13;3.75;;;;;;;5.11;100.00;103117.13;4959724;28;20065;-81
2021/10/08 02:56:13;;;;;;;4.20;3.80;;;;;;;5.07;100.00;103111.16;4981000;28;20045;-79
2021/10/08 02:58:39;;;;;;;3.80;3.42;;;;;;;5.03;100.00;103113.03;4954079;28;20046;-78
2021/10/08 03:01:05;;;;;;;4.10;3.45;;;;;;;4.96;100.00;103116.72;4954571;28;20034;-80
2021/10/08 03:03:30;;;;;;;4.97;3.17;;;;;;;4.95;100.00;103111.56;4931652;28;20031;-80
2021/10/08 03:05:56;;;;;;;4.45;3.30;;;;;;;4.93;100.00;103108.19;4954846;28;20640;-80
2021/10/08 03:08:25;;;;;;;4.05;3.53;;;;;;;4.95;100.00;103111.56;4942264;28;20511;-81
2021/10/08 03:10:50;;;;;;;3.70;3.40;;;;;;;4.92;100.00;103109.94;4941344;28;20038;-80
2021/10/08 03:13:16;;;;;;;6.32;5.55;;;;;;;4.90;100.00;103116.94;4957364;28;20038;-80
2021/10/08 03:15:41;;;;;;;8.05;5.78;;;;;;;4.87;100.00;103114.44;4945640;28;20038;-81
2021/10/08 03:18:07;;;;;;;8.38;5.97;;;;;;;4.85;100.00;103114.47;4926117;28;20469;-79
2021/10/08 03:20:32;;;;;;;7.10;5.90;;;;;;;4.83;100.00;103116.28;4957127;28;20042;-82
2021/10/08 03:22:58;;;;;;;7.05;4.63;;;;;;;4.90;100.00;103123.88;4932952;28;20097;-80
2021/10/08 03:25:24;;;;;;;5.22;4.45;;;;;;;4.81;100.00;103112.88;4947325;28;20470;-81
2021/10/08 03:27:50;;;;;;;8.35;4.78;;;;;;;4.80;100.00;103116.41;4954506;28;20044;-82
2021/10/08 03:30:15;;;;;;;5.35;4.85;;;;;;;4.81;100.00;103118.09;4945273;28;20129;-80
2021/10/08 03:32:42;;;;;;;6.28;4.18;;;;;;;4.82;100.00;103119.81;4928142;28;20513;-80
2021/10/08 03:35:08;;;;;;;5.20;4.30;;;;;;;4.76;100.00;103122.59;4949006;28;20031;-79
2021/10/08 03:37:41;;;;;;;4.72;4.20;;;;;;;4.80;100.00;103121.59;4925545;28;20033;-80
2021/10/08 03:40:09;;;;;;;4.82;4.40;;;;;;;4.83;100.00;103123.25;4957204;28;20032;-80
2021/10/08 03:42:34;;;;;;;5.25;4.40;;;;;;;4.82;100.00;103118.94;4966709;28;20066;-80
2021/10/08 03:45:08;;;;;;;5.07;4.57;;;;;;;4.77;100.00;103126.06;4946315;28;20038;-80
2021/10/08 03:47:53;;;;;;;6.30;4.90;;;;;;;4.72;100.00;103118.38;4956876;28;20408;-79
2021/10/08 03:50:19;;;;;;;5.72;5.07;;;;;;;4.68;100.00;103117.63;4962946;28;20029;-82
2021/10/08 03:52:45;;;;;;;5.35;4.75;;;;;;;4.70;100.00;103124.56;4960347;28;20033;-80
2021/10/08 03:55:10;;;;;;;4.40;3.80;;;;;;;4.75;100.00;103127.84;4937710;28;20030;-80
2021/10/08 03:57:36;;;;;;;4.88;4.40;;;;;;;4.73;100.00;103130.50;4978834;28;20034;-79
2021/10/08 04:00:03;;;;;;;6.25;4.05;;;;;;;4.79;100.00;103132.06;4957810;28;20038;-81
2021/10/08 04:02:30;;;;;;;5.35;4.15;;;;;;;4.77;100.00;103134.69;4953930;28;20047;-80
2021/10/08 04:04:55;;;;;;;4.50;4.03;;;;;;;4.77;100.00;103134.69;4941278;28;20110;-82
2021/10/08 04:07:20;;;;;;;5.45;4.00;;;;;;;4.71;100.00;103140.09;4957300;28;20034;-79
2021/10/08 04:09:46;;;;;;;4.68;3.95;;;;;;;4.66;100.00;103129.00;4940310;28;20412;-80
2021/10/08 04:12:11;;;;;;;5.38;4.05;;;;;;;4.64;100.00;103136.84;4944502;28;20145;-80
2021/10/08 04:14:38;;;;;;;6.63;4.78;;;;;;;4.65;100.00;103133.34;4941401;28;20046;-81
2021/10/08 04:17:03;;;;;;;7.28;4.47;;;;;;;4.57;100.00;103132.72;4938209;28;20045;-81
2021/10/08 04:19:30;;;;;;;8.55;5.28;;;;;;;4.60;100.00;103129.19;4941493;28;20077;-81
2021/10/08 04:21:55;;;;;;;12.45;5.60;;;;;;;4.59;100.00;103136.13;4929272;28;20513;-83
2021/10/08 04:24:21;;;;;;;9.48;6.03;;;;;;;4.62;100.00;103135.19;4931253;28;20077;-80
2021/10/08 04:26:47;;;;;;;8.82;5.63;;;;;;;4.60;100.00;103143.03;4947626;28;20061;-80
2021/10/08 04:29:13;;;;;;;13.95;5.90;;;;;;;4.56;100.00;103131.03;4972782;28;20037;-80
2021/10/08 04:31:38;;;;;;;8.27;5.85;;;;;;;4.60;100.00;103139.59;4961628;28;20037;-80
2021/10/08 04:34:04;;;;;;;12.10;5.55;;;;;;;4.59;100.00;103148.28;4942512;28;20037;-80
2021/10/08 04:36:31;;;;;;;6.30;5.40;;;;;;;4.56;100.00;103145.78;4956639;28;20045;-81
2021/10/08 04:38:57;;;;;;;11.20;5.75;;;;;;;4.51;100.00;103145.94;4944414;28;20034;-80
2021/10/08 04:41:22;;;;;;;11.45;5.93;;;;;;;4.34;100.00;103135.22;4943673;28;20042;-81
2021/10/08 04:43:48;;;;;;;34.95;6.03;;;;;;;4.33;100.00;103141.28;4921563;28;20077;-80
2021/10/08 04:46:14;;;;;;;25.58;5.88;;;;;;;4.28;100.00;103146.66;4933218;28;20042;-80
2021/10/08 04:48:40;;;;;;;5.75;5.15;;;;;;;4.31;100.00;103151.72;4937121;28;20089;-82
2021/10/08 04:51:05;;;;;;;6.70;5.78;;;;;;;4.35;100.00;103145.56;4941015;28;20041;-80
2021/10/08 04:53:31;;;;;;;6.53;5.28;;;;;;;4.36;100.00;103154.19;4956765;28;20038;-79
2021/10/08 04:55:56;;;;;;;8.00;5.47;;;;;;;4.34;100.00;103154.25;4937957;28;20117;-81
2021/10/08 04:58:23;;;;;;;8.32;5.55;;;;;;;4.34;100.00;103153.41;4940940;28;20026;-79
2021/10/08 05:00:50;;;;;;;7.63;5.20;;;;;;;4.28;100.00;103152.69;4937957;28;20047;-80
2021/10/08 05:03:18;;;;;;;9.82;5.65;;;;;;;4.33;100.00;103160.31;4949841;28;20076;-80
2021/10/08 05:05:48;;;;;;;10.98;6.35;;;;;;;4.31;100.00;103156.09;4941782;28;20469;-81
2021/10/08 05:08:18;;;;;;;11.18;7.85;;;;;;;4.30;100.00;103150.03;4939813;28;20030;-79
2021/10/08 05:10:44;;;;;;;15.52;10.68;;;;;;;4.34;100.00;103161.19;4944416;28;20415;-80
2021/10/08 05:13:10;;;;;;;14.35;9.20;;;;;;;4.33;100.00;103159.47;4944732;28;20032;-79
2021/10/08 05:15:36;;;;;;;19.55;11.52;;;;;;;4.28;100.00;103165.69;4953835;28;20425;-78
2021/10/08 05:18:02;;;;;;;12.48;10.32;;;;;;;4.26;100.00;103158.84;4977631;28;20898;-82
2021/10/08 05:20:28;;;;;;;11.68;8.05;;;;;;;4.23;100.00;103157.16;4960950;28;20034;-81
2021/10/08 05:22:54;;;;;;;9.80;7.80;;;;;;;4.28;100.00;103157.88;4961868;28;20081;-81
2021/10/08 05:25:19;;;;;;;8.55;6.90;;;;;;;4.26;100.00;103151.03;4943887;28;20034;-80
2021/10/08 05:27:46;;;;;;;10.68;7.57;;;;;;;4.25;100.00;103152.75;4958286;28;20038;-80
2021/10/08 05:30:13;;;;;;;11.73;8.18;;;;;;;4.25;100.00;103154.53;4958756;28;20113;-80
2021/10/08 05:32:39;;;;;;;13.38;8.35;;;;;;;4.24;100.00;103151.09;4940783;28;20038;-79
2021/10/08 05:35:07;;;;;;;12.68;8.15;;;;;;;4.22;100.00;103150.28;4944027;28;20153;-79
2021/10/08 05:37:32;;;;;;;11.73;8.27;;;;;;;4.19;100.00;103150.34;4940998;28;20125;-80
2021/10/08 05:39:58;;;;;;;27.98;8.68;;;;;;;4.21;100.00;103158.13;4957647;28;20683;-82
2021/10/08 05:42:23;;;;;;;9.57;7.50;;;;;;;4.23;100.00;103159.75;4940073;28;20118;-80
2021/10/08 05:44:50;;;;;;;9.65;7.65;;;;;;;4.26;100.00;103169.22;4964635;28;20145;-79
2021/10/08 05:47:15;;;;;;;9.45;7.45;;;;;;;4.23;100.00;103164.13;4943463;28;20129;-79
2021/10/08 05:49:41;;;;;;;9.98;7.60;;;;;;;4.20;100.00;103165.06;4956081;28;20113;-82
2021/10/08 05:52:07;;;;;;;9.27;6.72;;;;;;;4.24;100.00;103174.47;4943771;28;20062;-81
2021/10/08 05:54:32;;;;;;;9.95;7.43;;;;;;;4.23;100.00;103177.09;4943828;28;20057;-82
2021/10/08 05:56:58;;;;;;;9.57;7.60;;;;;;;4.23;100.00;103171.91;4967604;28;20527;-82
2021/10/08 05:59:23;;;;;;;8.13;6.70;;;;;;;4.28;100.00;103175.22;4957722;28;20042;-82
2021/10/08 06:01:49;;;;;;;10.68;6.82;;;;;;;4.29;100.00;103180.38;4960905;28;20497;-83
2021/10/08 06:04:15;;;;;;;6.70;5.90;;;;;;;4.35;100.00;103186.28;4955493;28;20492;-80
2021/10/08 06:06:43;;;;;;;7.18;6.22;;;;;;;4.38;100.00;103186.19;4953728;28;20035;-80
2021/10/08 06:09:09;;;;;;;7.78;6.68;;;;;;;4.35;100.00;103179.34;4962333;28;20088;-82
2021/10/08 06:11:36;;;;;;;15.77;6.40;;;;;;;4.34;100.00;103189.78;4950048;28;20041;-75
2021/10/08 06:14:01;;;;;;;10.30;6.65;;;;;;;4.31;100.00;103187.25;4969073;28;20026;-79
2021/10/08 06:16:27;;;;;;;34.72;6.65;;;;;;;4.32;100.00;103196.78;4960179;28;20034;-83
2021/10/08 06:18:55;;;;;;;17.27;13.88;;;;;;;4.36;100.00;103201.81;4940736;28;20041;-80
2021/10/08 06:21:21;;;;;;;20.58;15.52;;;;;;;4.35;100.00;103200.13;4959958;28;20033;-79
2021/10/08 06:23:46;;;;;;;22.90;17.70;;;;;;;4.33;100.00;103193.25;4975075;28;20404;-80
2021/10/08 06:26:12;;;;;;;23.20;16.67;;;;;;;4.39;100.00;103201.75;4957762;28;20667;-80
2021/10/08 06:28:38;;;;;;;28.52;17.50;;;;;;;4.40;100.00;103203.41;4955930;28;20311;-80
2021/10/08 06:31:03;;;;;;;15.32;13.13;;;;;;;4.44;100.00;103205.03;4950779;28;20026;-81
2021/10/08 06:33:32;;;;;;;11.70;10.50;;;;;;;4.43;100.00;103195.53;4943615;28;20042;-79
2021/10/08 06:35:58;;;;;;;9.35;8.38;;;;;;;4.51;100.00;103203.09;4944508;28;20065;-82
2021/10/08 06:38:24;;;;;;;10.20;9.10;;;;;;;4.52;100.00;103203.94;4971961;28;20055;-82
2021/10/08 06:40:51;;;;;;;8.50;7.57;;;;;;;4.54;100.00;103210.81;4954085;28;20042;-80
2021/10/08 06:43:17;;;;;;;7.07;6.38;;;;;;;4.62;100.00;103211.44;4971892;28;20042;-80
2021/10/08 06:46:00;;;;;;;8.43;6.28;;;;;;;4.71;100.00;103210.31;4946028;28;20069;-80
2021/10/08 06:48:26;;;;;;;10.90;5.80;;;;;;;4.80;100.00;103219.53;4974872;28;20146;-79
2021/10/08 06:50:52;;;;;;;7.40;6.55;;;;;;;4.91;100.00;103222.66;4948468;28;20045;-82
2021/10/08 06:53:17;;;;;;;6.63;6.00;;;;;;;5.04;100.00;103229.16;4939937;28;20038;-79
2021/10/08 06:55:47;;;;;;;6.82;6.10;;;;;;;5.06;100.00;103224.75;4935355;28;20501;-80
2021/10/08 06:58:13;;;;;;;8.13;6.68;;;;;;;5.16;100.00;103230.53;4966016;28;20033;-83
2021/10/08 07:00:40;;;;;;;6.70;6.10;;;;;;;5.30;100.00;103242.25;4949963;28;20069;-79
2021/10/08 07:03:08;;;;;;;7.88;6.60;;;;;;;5.34;100.00;103231.66;4941162;28;20770;-81
2021/10/08 07:05:36;;;;;;;9.15;7.30;;;;;;;5.47;100.00;103238.16;4956289;28;20502;-80
2021/10/08 07:08:05;;;;;;;7.90;6.18;;;;;;;5.52;100.00;103235.41;4957992;28;21069;-81
2021/10/08 07:10:31;;;;;;;7.95;6.25;;;;;;;5.56;100.00;103238.75;4974208;28;20094;-80
2021/10/08 07:12:56;;;;;;;9.73;6.13;;;;;;;5.57;100.00;103235.25;4957924;28;20637;-81
2021/10/08 07:15:22;;;;;;;8.88;5.95;;;;;;;5.58;100.00;103236.97;4940602;28;20512;-80
2021/10/08 07:17:50;;;;;;;10.55;6.47;;;;;;;5.60;100.00;103245.56;4958594;28;20050;-82
2021/10/08 07:20:25;;;;;;;8.43;6.13;;;;;;;5.59;100.00;103244.69;4963682;28;20062;-80
2021/10/08 07:22:51;;;;;;;9.90;6.13;;;;;;;5.58;100.00;103244.78;4941707;28;20082;-80
2021/10/08 07:25:17;;;;;;;10.32;7.18;;;;;;;5.61;100.00;103250.72;4930745;28;20145;-80
2021/10/08 07:27:45;;;;;;;31.10;7.13;;;;;;;5.65;100.00;103254.03;4965286;28;20399;-81
2021/10/08 07:30:12;;;;;;;12.40;7.88;;;;;;;5.70;100.00;103249.53;4940842;28;20018;-80
2021/10/08 07:32:38;;;;;;;9.88;7.68;;;;;;;5.80;100.00;103258.75;4941984;28;20081;-80
2021/10/08 07:35:04;;;;;;;11.90;8.00;;;;;;;5.93;100.00;103258.28;4944206;28;20035;-81
2021/10/08 07:37:30;;;;;;;14.07;7.43;;;;;;;6.07;100.00;103266.50;4942287;28;20073;-80
2021/10/08 07:39:56;;;;;;;9.85;6.93;;;;;;;6.12;100.00;103271.53;4974488;28;20055;-83
2021/10/08 07:42:22;;;;;;;10.98;7.35;;;;;;;6.17;100.00;103270.47;4961649;28;20034;-82
2021/10/08 07:44:48;;;;;;;10.00;6.95;;;;;;;6.29;100.00;103263.97;4945302;28;20507;-80
2021/10/08 07:47:15;;;;;;;15.20;8.30;;;;;;;6.39;100.00;103267.09;4941102;28;20035;-79
2021/10/08 07:49:40;;;;;;;13.93;8.65;;;;;;;6.47;100.00;103270.25;4960816;28;20042;-82
2021/10/08 07:52:06;;;;;;;31.52;9.00;;;;;;;6.60;100.00;103268.88;4940690;28;20042;-80
2021/10/08 07:54:32;;;;;;;18.05;10.05;;;;;;;6.69;100.00;103272.91;4958172;28;20030;-82
2021/10/08 07:56:57;;;;;;;17.30;10.48;;;;;;;6.74;100.00;103270.09;4956955;28;20040;-82
2021/10/08 07:59:23;;;;;;;17.55;10.40;;;;;;;6.75;100.00;103270.03;4965337;28;20517;-78
2021/10/08 08:01:48;;;;;;;13.95;9.95;;;;;;;6.82;100.00;103273.28;4939380;28;20062;-80
2021/10/08 08:04:13;;;;;;;15.95;10.85;;;;;;;6.88;100.00;103278.25;4968651;28;20038;-78
2021/10/08 08:06:39;;;;;;;12.50;10.30;;;;;;;6.94;100.00;103272.78;4950945;28;20042;-79
2021/10/08 08:09:04;;;;;;;14.40;10.70;;;;;;;7.05;100.00;103269.75;4979906;28;20038;-79
2021/10/08 08:11:30;;;;;;;15.38;10.98;;;;;;;7.17;100.00;103271.84;4964160;28;20109;-78
2021/10/08 08:13:55;;;;;;;16.85;11.48;;;;;;;7.30;100.00;103269.59;4938757;28;20229;-79
2021/10/08 08:16:21;;;;;;;16.80;11.38;;;;;;;7.51;100.00;103270.44;4956246;28;20034;-78
2021/10/08 08:18:47;;;;;;;15.15;11.07;;;;;;;7.67;100.00;103270.66;4950717;28;20039;-78
2021/10/08 08:21:12;;;;;;;14.90;11.55;;;;;;;7.72;100.00;103267.84;4944798;28;20045;-78
2021/10/08 08:23:38;;;;;;;13.82;10.43;;;;;;;7.86;100.00;103268.09;4939862;28;20038;-78
2021/10/08 08:26:03;;;;;;;16.83;11.65;;;;;;;7.98;100.00;103269.31;4935774;28;20042;-77
2021/10/08 08:28:29;;;;;;;21.63;12.05;;;;;;;8.17;100.00;103269.34;4953260;28;20097;-77
2021/10/08 08:30:55;;;;;;;18.15;11.82;;;;;;;8.36;100.00;103270.22;4948292;28;20250;-77
2021/10/08 08:33:22;;;;;;;18.10;12.07;;;;;;;8.55;100.00;103272.88;4939014;28;20144;-78
2021/10/08 08:35:47;;;;;;;15.13;12.00;;;;;;;8.83;100.00;103278.56;4943662;28;20042;-78
2021/10/08 08:38:13;;;;;;;15.57;10.85;;;;;;;8.98;100.00;103271.75;4952636;28;20042;-79
2021/10/08 08:40:38;;;;;;;14.38;10.40;;;;;;;9.11;100.00;103270.22;4955115;28;20049;-80
2021/10/08 08:43:04;;;;;;;16.13;10.68;;;;;;;9.35;100.00;103270.81;4976540;28;20058;-76
2021/10/08 08:45:31;;;;;;;14.35;10.98;;;;;;;9.48;100.00;103269.25;4967509;28;20048;-79
2021/10/08 08:48:04;;;;;;;17.48;10.75;;;;;;;9.70;100.00;103276.00;4935357;28;20038;-79
2021/10/08 08:50:32;;;;;;;15.35;10.60;;;;;;;9.92;100.00;103278.38;4938541;28;20100;-81
2021/10/08 08:52:58;;;;;;;14.90;9.88;;;;;;;10.12;100.00;103275.56;4964514;28;20039;-82
2021/10/08 08:55:23;;;;;;;16.70;9.50;;;;;;;10.11;100.00;103278.25;4956621;28;20041;-81
2021/10/08 08:57:50;;;;;;;15.27;10.05;;;;;;;10.23;100.00;103282.84;4973337;28;20038;-80
2021/10/08 09:00:18;;;;;;;13.20;10.02;;;;;;;10.31;100.00;103278.06;4941636;28;20046;-80
2021/10/08 09:03:05;;;;;;;12.75;9.43;;;;;;;10.36;100.00;103277.84;4971339;28;20085;-79
2021/10/08 09:05:32;;;;;;;10.63;9.07;;;;;;;10.35;100.00;103275.28;4964860;28;20078;-81
2021/10/08 09:08:06;;;;;;;14.80;9.75;;;;;;;10.46;100.00;103278.19;4936865;28;20122;-81
2021/10/08 09:10:35;;;;;;;15.30;10.60;;;;;;;10.64;100.00;103282.41;4954051;28;20040;-81
2021/10/08 09:13:00;;;;;;;15.60;9.32;;;;;;;10.70;100.00;103279.44;4954472;28;20038;-82
2021/10/08 09:15:43;;;;;;;13.23;8.77;;;;;;;10.90;100.00;103282.72;4936607;28;20041;-81
2021/10/08 09:18:10;;;;;;;13.07;9.63;;;;;;;10.91;100.00;103280.03;4966239;28;20030;-81
2021/10/08 09:20:37;;;;;;;10.98;8.82;;;;;;;10.94;100.00;103278.16;4967467;28;20049;-79
2021/10/08 09:23:04;;;;;;;16.00;9.70;;;;;;;10.94;100.00;103279.00;4936816;28;20473;-79
2021/10/08 09:25:35;;;;;;;14.52;10.50;;;;;;;11.00;100.00;103273.41;4954025;28;20074;-81
2021/10/08 09:28:09;;;;;;;12.68;8.95;;;;;;;11.20;100.00;103268.78;4967357;28;20033;-82
2021/10/08 09:30:45;;;;;;;15.32;9.23;;;;;;;11.37;100.00;103280.94;4940349;28;20144;-80
2021/10/08 09:33:19;;;;;;;12.70;9.15;;;;;;;11.57;100.00;103275.34;4959719;28;20109;-83
2021/10/08 09:35:46;;;;;;;12.55;8.50;;;;;;;11.73;100.00;103277.91;4927203;28;20047;-81
2021/10/08 09:38:14;;;;;;;13.75;8.38;;;;;;;11.85;100.00;103269.28;4942348;28;20034;-79
2021/10/08 09:40:51;;;;;;;11.20;8.40;;;;;;;11.98;100.00;103277.31;4943343;28;20485;-81
2021/10/08 09:43:22;;;;;;;13.38;9.23;;;;;;;12.12;100.00;103273.81;4935351;28;20621;-82
2021/10/08 09:45:55;;;;;;;11.55;8.77;;;;;;;12.22;100.00;103282.84;4937319;28;20038;-80
2021/10/08 09:48:24;;;;;;;12.23;8.07;;;;;;;12.33;99.29;103273.44;4931364;28;20035;-80
2021/10/08 09:51:10;;;;;;;13.77;8.13;;;;;;;12.48;98.81;103277.72;4964947;28;20041;-79
2021/10/08 09:53:48;;;;;;;13.85;8.43;;;;;;;12.48;100.00;103274.25;4947616;28;20034;-82
2021/10/08 09:56:35;;;;;;;12.63;8.52;;;;;;;12.62;99.61;103268.94;4965927;28;20056;-80
2021/10/08 09:59:02;;;;;;;13.43;8.35;;;;;;;12.76;96.78;103265.44;4976240;28;20040;-81
2021/10/08 10:01:29;;;;;;;10.75;7.55;;;;;;;12.89;97.10;103263.69;4950953;28;20034;-82
2021/10/08 10:03:55;;;;;;;9.57;7.28;;;;;;;12.96;98.38;103269.38;4948571;28;20120;-82
2021/10/08 10:06:22;;;;;;;9.75;7.30;;;;;;;13.05;95.62;103272.28;4943502;28;20038;-81
2021/10/08 10:08:47;;;;;;;11.60;7.20;;;;;;;13.19;96.26;103268.72;4960767;28;20419;-83
2021/10/08 10:11:21;;;;;;;11.43;6.78;;;;;;;13.31;95.36;103269.72;4958465;28;20161;-82
2021/10/08 10:13:49;;;;;;;8.02;5.55;;;;;;;13.55;92.74;103276.94;4959849;28;20034;-80
2021/10/08 10:16:16;;;;;;;7.57;5.10;;;;;;;13.64;92.60;103271.03;4960768;28;20041;-83
2021/10/08 10:18:46;;;;;;;6.57;5.00;;;;;;;13.83;92.07;103274.09;4940927;28;20034;-83
2021/10/08 10:21:12;;;;;;;9.90;5.40;;;;;;;13.94;93.58;103268.06;4939031;28;20093;-80
2021/10/08 10:23:39;;;;;;;8.57;5.10;;;;;;;14.03;91.81;103271.84;4960207;28;20435;-82
2021/10/08 10:26:04;;;;;;;9.10;5.28;;;;;;;14.05;95.96;103269.94;4965023;28;20034;-82
2021/10/08 10:28:30;;;;;;;6.45;4.30;;;;;;;14.01;91.13;103258.78;4955023;28;20038;-81
2021/10/08 10:30:56;;;;;;;6.57;4.00;;;;;;;14.25;92.42;103273.81;4962182;28;20396;-80
2021/10/08 10:33:27;;;;;;;5.57;4.40;;;;;;;14.48;89.57;103276.63;4954171;28;20667;-82
2021/10/08 10:35:56;;;;;;;6.35;3.80;;;;;;;14.56;87.25;103280.41;4946424;28;20400;-83
2021/10/08 10:38:33;;;;;;;5.25;4.05;;;;;;;14.65;87.25;103281.56;4960243;28;20033;-84
2021/10/08 10:41:07;;;;;;;6.60;4.28;;;;;;;14.88;88.08;103279.88;4949522;28;20041;-82
2021/10/08 10:43:39;;;;;;;5.60;3.85;;;;;;;14.93;86.86;103277.72;4943694;28;20129;-81
2021/10/08 10:46:46;;;;;;;6.75;4.32;;;;;;;15.08;87.05;103277.56;4939967;28;20775;-82
2021/10/08 10:52:04;;;;;;;7.43;4.20;;;;;;;15.25;85.54;103279.78;4956298;28;20117;-83
2021/10/08 10:54:42;;;;;;;7.50;4.55;;;;;;;15.41;85.74;103274.19;4959559;28;20130;-82
2021/10/08 10:57:32;;;;;;;9.48;3.95;;;;;;;15.41;84.89;103268.91;4967171;28;20053;-81
2021/10/08 11:00:25;;;;;;;5.22;3.40;;;;;;;15.49;82.80;103271.78;4961616;28;20038;-80
2021/10/08 11:03:18;;;;;;;5.20;2.88;;;;;;;15.43;79.40;103274.91;4974268;28;20049;-84
2021/10/08 11:06:07;;;;;;;4.05;2.50;;;;;;;15.47;81.84;103265.78;4964188;28;20042;-80
2021/10/08 11:08:33;;;;;;;2.92;1.83;;;;;;;15.56;78.48;103266.88;4954514;28;20039;-83
2021/10/08 11:10:58;;;;;;;4.53;1.73;;;;;;;15.67;79.96;103266.91;4956223;28;20683;-82
2021/10/08 11:13:28;;;;;;;4.03;2.30;;;;;;;15.70;78.66;103265.81;4928170;28;20050;-80
2021/10/08 11:16:05;;;;;;;5.00;2.92;;;;;;;15.77;80.65;103264.41;4947163;28;20026;-81
2021/10/08 11:18:34;;;;;;;3.30;2.80;;;;;;;15.99;80.27;103265.38;4940777;28;20045;-80
2021/10/08 11:21:00;;;;;;;4.18;2.38;;;;;;;16.01;76.32;103266.94;4954385;28;20065;-82
2021/10/08 11:23:29;;;;;;;3.03;2.00;;;;;;;16.00;76.52;103264.41;4952335;28;20073;-82
2021/10/08 11:26:01;;;;;;;3.53;2.00;;;;;;;16.14;77.03;103258.84;4941925;28;20547;-85